Caroline Theresa — OUOZ2 — position and weather

sailwx.info

Track history (hours):
 
Tides and Currents Weather Stations Pressure Air Temp Water Temp Dewpoint Dewpoint Depression Visibility Wind Speed Wind Dir Waves Ship Positions

Caroline Theresa

Last reported at 2018-Jun-23 10:00 UTC. Time now 2018-Jun-23 10:08 UTC.
Position N 43°33' W 003°51'.

Length 102 m; draft 7.1 m.

Type: Ship. MMSI: 220637000.

Date/timePositionNaut miles runAvg speedWind from/ knotsBaromVisibWave heightAir tempDewpointWater temp
2018-Jun-23 10:00N 43°33' W 003°51'5 9.8
2018-Jun-23 09:30N 43°36' W 003°57'14 9.8
2018-Jun-23 08:07N 43°40' W 004°15'1 9.9
2018-Jun-23 08:00N 43°40' W 004°17'37 9.9
2018-Jun-23 04:13N 43°46' W 005°08'310.0
2018-Jun-23 03:58N 43°46' W 005°11'510.0
2018-Jun-23 03:30N 43°47' W 005°18'5 9.9
2018-Jun-23 03:00N 43°48' W 005°24'5 9.8
2018-Jun-23 02:28N 43°48' W 005°31'5 9.8
2018-Jun-23 01:59N 43°49' W 005°38'5 9.6
2018-Jun-23 01:26N 43°50' W 005°45'325 6.3
2018-Jun-20 21:31N 39°25' W 009°56'0 9.7
2018-Jun-20 21:31N 39°25' W 009°56'510.0
2018-Jun-20 21:00N 39°20' W 009°56'5 9.9
2018-Jun-20 20:30N 39°15' W 009°57'510.3
2018-Jun-20 20:00N 39°10' W 009°57'510.2
2018-Jun-20 19:30N 39°05' W 009°56'510.1
2018-Jun-20 19:01N 38°60' W 009°56'510.2
2018-Jun-20 18:30N 38°55' W 009°56'510.2
2018-Jun-20 18:01N 38°50' W 009°56'510.0
2018-Jun-20 17:30N 38°45' W 009°57'5 9.8
2018-Jun-20 17:00N 38°40' W 009°56'5 9.5
2018-Jun-20 16:30N 38°35' W 009°54'5 9.3
2018-Jun-20 16:00N 38°31' W 009°53'5 9.2
2018-Jun-20 15:30N 38°26' W 009°52'5 9.4
2018-Jun-20 15:00N 38°22' W 009°50'5 9.9
2018-Jun-20 14:30N 38°17' W 009°49'5 9.7
2018-Jun-20 14:00N 38°12' W 009°47'5 9.9
2018-Jun-20 13:30N 38°07' W 009°46'510.0
2018-Jun-20 13:00N 38°02' W 009°44'510.1
2018-Jun-20 12:30N 37°57' W 009°43'810.4
2018-Jun-20 11:46N 37°50' W 009°41'310.5
2018-Jun-20 11:30N 37°47' W 009°40'710.5
2018-Jun-20 10:49N 37°40' W 009°38'310.6
2018-Jun-20 10:30N 37°37' W 009°37'413 8.7
2018-Jun-18 11:09N 37°19' W 000°57'311.1
2018-Jun-18 10:53N 37°21' W 000°54'411.0
2018-Jun-18 10:29N 37°23' W 000°50'611.0
2018-Jun-18 09:54N 37°27' W 000°44'711.2
2018-Jun-18 09:15N 37°32' W 000°37'311.3
2018-Jun-18 09:00N 37°34' W 000°34'611.2
2018-Jun-18 08:29N 37°39' W 000°31'511.2
2018-Jun-18 08:00N 37°44' W 000°27'611.3
2018-Jun-18 07:30N 37°48' W 000°23'611.3
2018-Jun-18 07:00N 37°53' W 000°19'511.0
2018-Jun-18 06:30N 37°57' W 000°15'611.1
2018-Jun-18 05:59N 38°02' W 000°11'711.0
2018-Jun-18 05:21N 38°09' W 000°07'411.0
2018-Jun-18 05:00N 38°12' W 000°06'611.2
2018-Jun-18 04:30N 38°17' W 000°02'710.6
2018-Jun-18 03:49N 38°21' E 000°05'411.2
2018-Jun-18 03:30N 38°24' E 000°08'611.3
2018-Jun-18 03:00N 38°29' E 000°12'611.2
2018-Jun-18 02:30N 38°34' E 000°15'611.6
2018-Jun-18 02:00N 38°39' E 000°19'911.3
2018-Jun-18 01:12N 38°46' E 000°26'411.0
2018-Jun-18 00:52N 38°49' E 000°29'510.8
2018-Jun-18 00:26N 38°53' E 000°33'1310.9
2018-Jun-17 23:15N 39°03' E 000°43'310.8
2018-Jun-17 22:58N 39°05' E 000°45'5811.0
2018-Jun-17 17:45N 39°49' E 001°32'310.6
2018-Jun-17 17:30N 39°52' E 001°34'1410.7
2018-Jun-17 16:09N 40°03' E 001°46'23411.0
2018-Jun-16 18:52N 43°08' E 004°58'510.5
2018-Jun-16 18:25N 43°13' E 005°01'511.2
2018-Jun-16 18:00N 43°17' E 004°59'510.8
2018-Jun-16 17:30N 43°23' E 004°58'1 2.9
2018-Jun-16 17:00N 43°24' E 004°60'0 0.0
2018-Jun-16 16:30N 43°24' E 004°60'0 0.0
2018-Jun-16 16:00N 43°24' E 004°60'0 0.0
2018-Jun-16 15:27N 43°24' E 004°60'0 0.0
2018-Jun-16 15:00N 43°24' E 004°60'0 0.0
2018-Jun-16 14:30N 43°24' E 004°60'0 0.0
2018-Jun-16 14:00N 43°24' E 004°60'0 0.0
2018-Jun-16 13:27N 43°24' E 004°60'0 0.0
2018-Jun-16 12:57N 43°24' E 004°60'0 0.0
2018-Jun-16 12:30N 43°24' E 004°60'0 0.0
2018-Jun-16 12:00N 43°24' E 004°60'0 0.0
2018-Jun-16 11:30N 43°24' E 004°60'0 0.0
2018-Jun-16 11:00N 43°24' E 004°60'0 0.0
2018-Jun-16 10:27N 43°24' E 004°60'0 0.0
2018-Jun-16 09:57N 43°24' E 004°60'0 0.0
2018-Jun-16 09:30N 43°24' E 004°60'0 0.0
2018-Jun-16 09:00N 43°24' E 004°60'0 0.0
2018-Jun-16 08:30N 43°24' E 004°60'0 0.0
2018-Jun-16 08:00N 43°24' E 004°60'0 0.0
2018-Jun-16 07:30N 43°24' E 004°60'0 0.0
2018-Jun-16 07:00N 43°24' E 004°60'0 0.0
2018-Jun-16 06:27N 43°24' E 004°60'0 0.0
2018-Jun-16 05:57N 43°24' E 004°60'0 0.0
2018-Jun-16 05:30N 43°24' E 004°60'0 0.0
2018-Jun-16 05:00N 43°24' E 004°60'0 0.0
2018-Jun-16 04:27N 43°24' E 004°60'0 0.0
2018-Jun-16 03:57N 43°24' E 004°60'0 0.0
2018-Jun-16 03:30N 43°24' E 004°60'0 0.0
2018-Jun-16 03:00N 43°24' E 004°60'0 0.0
2018-Jun-16 02:30N 43°24' E 004°60'0 0.0
2018-Jun-16 02:00N 43°24' E 004°60'0 0.0
2018-Jun-16 01:30N 43°24' E 004°60'0 0.0
2018-Jun-16 01:00N 43°24' E 004°60'0 0.0
2018-Jun-16 00:27N 43°24' E 004°60'0 0.0
2018-Jun-16 00:00N 43°24' E 004°60'0 0.0
2018-Jun-15 23:30N 43°24' E 004°60'0 0.0
2018-Jun-15 23:00N 43°24' E 004°60'0 0.5
2018-Jun-15 22:30N 43°24' E 004°59'3 5.2
2018-Jun-15 22:00N 43°25' E 004°56'0 0.4
2018-Jun-15 21:26N 43°25' E 004°56'0 0.0
2018-Jun-15 20:56N 43°25' E 004°56'0 0.0
2018-Jun-15 20:23N 43°25' E 004°56'0 0.0
2018-Jun-15 19:59N 43°25' E 004°56'0 0.0
2018-Jun-15 19:29N 43°25' E 004°56'0 0.0
2018-Jun-15 18:59N 43°25' E 004°56'0 0.0
2018-Jun-15 18:26N 43°25' E 004°56'0 0.0
2018-Jun-15 17:47N 43°25' E 004°56'0 0.0
2018-Jun-15 17:29N 43°25' E 004°56'0 0.0
2018-Jun-15 16:56N 43°25' E 004°56'0 0.0
2018-Jun-15 16:20N 43°25' E 004°56'0 0.0
2018-Jun-15 15:59N 43°25' E 004°56'0 0.0
2018-Jun-15 15:26N 43°25' E 004°56'0 0.0
2018-Jun-15 14:56N 43°25' E 004°56'0 0.0
2018-Jun-15 14:23N 43°25' E 004°56'0 0.1
2018-Jun-15 13:59N 43°25' E 004°56'0 0.0
2018-Jun-15 13:29N 43°25' E 004°56'0 0.0
2018-Jun-15 12:56N 43°25' E 004°56'0 0.0
2018-Jun-15 12:29N 43°25' E 004°56'0 0.0
2018-Jun-15 11:59N 43°25' E 004°56'0 0.0
2018-Jun-15 11:26N 43°25' E 004°56'0 0.0
2018-Jun-15 10:59N 43°25' E 004°56'0 0.0
2018-Jun-15 10:29N 43°25' E 004°56'0 0.0
2018-Jun-15 09:50N 43°25' E 004°56'0 0.0
2018-Jun-15 09:23N 43°25' E 004°56'0 0.0
2018-Jun-15 08:59N 43°25' E 004°56'0 0.0
2018-Jun-15 08:29N 43°25' E 004°56'0 0.0
2018-Jun-15 07:59N 43°25' E 004°56'0 0.0
2018-Jun-15 07:29N 43°25' E 004°56'0 0.0
2018-Jun-15 06:59N 43°25' E 004°56'0 0.0
2018-Jun-15 06:23N 43°25' E 004°56'0 0.0
2018-Jun-15 05:59N 43°25' E 004°56'0 0.0
2018-Jun-15 05:29N 43°25' E 004°56'0 0.0
2018-Jun-15 04:56N 43°25' E 004°56'0 0.0
2018-Jun-15 04:26N 43°25' E 004°56'0 0.0
2018-Jun-15 03:59N 43°25' E 004°56'0 0.0
2018-Jun-15 03:29N 43°25' E 004°56'0 0.0
2018-Jun-15 02:59N 43°25' E 004°56'0 0.0
2018-Jun-15 02:23N 43°25' E 004°56'0 0.0
2018-Jun-15 01:59N 43°25' E 004°56'0 0.0
2018-Jun-15 01:29N 43°25' E 004°56'0 0.0
2018-Jun-15 00:59N 43°25' E 004°56'0 0.0
2018-Jun-15 00:29N 43°25' E 004°56'0 0.0
2018-Jun-14 23:59N 43°25' E 004°56'0 0.0
2018-Jun-14 23:29N 43°25' E 004°56'0 0.0
2018-Jun-14 22:59N 43°25' E 004°56'0 0.0
2018-Jun-14 22:29N 43°25' E 004°56'0 0.0
2018-Jun-14 21:59N 43°25' E 004°56'0 0.0
2018-Jun-14 21:26N 43°25' E 004°56'0 0.0
2018-Jun-14 20:50N 43°25' E 004°56'0 0.0
2018-Jun-14 20:29N 43°25' E 004°56'0 0.0
2018-Jun-14 19:53N 43°25' E 004°56'0 0.0
2018-Jun-14 19:29N 43°25' E 004°56'0 0.0
2018-Jun-14 18:56N 43°25' E 004°56'0 0.0
2018-Jun-14 18:29N 43°25' E 004°56'0 0.0
2018-Jun-14 17:59N 43°25' E 004°56'0 0.0
2018-Jun-14 17:29N 43°25' E 004°56'0 0.0
2018-Jun-14 16:56N 43°25' E 004°56'0 0.1
2018-Jun-14 16:26N 43°25' E 004°56'0 0.0
2018-Jun-14 15:59N 43°25' E 004°56'0 0.0
2018-Jun-14 15:29N 43°25' E 004°56'0 0.0
2018-Jun-14 14:59N 43°25' E 004°56'0 0.0
2018-Jun-14 14:26N 43°25' E 004°56'0 0.0
2018-Jun-14 13:56N 43°25' E 004°56'0 0.0
2018-Jun-14 13:26N 43°25' E 004°56'0 0.0
2018-Jun-14 12:59N 43°25' E 004°56'0 0.8
2018-Jun-14 12:30N 43°24' E 004°56'5 9.1
2018-Jun-14 12:01N 43°20' E 004°59'3 6.2
2018-Jun-14 11:30N 43°17' E 005°01'4 7.8
2018-Jun-14 10:57N 43°13' E 005°03'150 6.9
2018-Jun-13 13:12N 43°38' E 008°26'210.7
2018-Jun-13 13:00N 43°40' E 008°28'510.8
2018-Jun-13 12:31N 43°44' E 008°32'510.8
2018-Jun-13 12:00N 43°48' E 008°36'510.7
2018-Jun-13 11:30N 43°53' E 008°40'510.5
2018-Jun-13 11:00N 43°57' E 008°45'510.9
2018-Jun-13 10:30N 44°02' E 008°49'  
Track history (hours):
 
Tides and Currents Weather Stations Pressure Air Temp Water Temp Dewpoint Dewpoint Depression Visibility Wind Speed Wind Dir Waves Ship Positions

Caroline Theresa

Last reported at 2018-Jun-23 10:00 UTC. Time now 2018-Jun-23 10:08 UTC.
Position N 43°33' W 003°51'.

Length 102 m; draft 7.1 m.

Type: Ship. MMSI: 220637000.

Date/timePositionNaut miles runAvg speedWind from/ knotsBaromVisibWave heightAir tempDewpointWater temp
2018-Jun-23 10:00N 43°33' W 003°51'5 9.8
2018-Jun-23 09:30N 43°36' W 003°57'14 9.8
2018-Jun-23 08:07N 43°40' W 004°15'1 9.9
2018-Jun-23 08:00N 43°40' W 004°17'37 9.9
2018-Jun-23 04:13N 43°46' W 005°08'310.0
2018-Jun-23 03:58N 43°46' W 005°11'510.0
2018-Jun-23 03:30N 43°47' W 005°18'5 9.9
2018-Jun-23 03:00N 43°48' W 005°24'5 9.8
2018-Jun-23 02:28N 43°48' W 005°31'5 9.8
2018-Jun-23 01:59N 43°49' W 005°38'5 9.6
2018-Jun-23 01:26N 43°50' W 005°45'325 6.3
2018-Jun-20 21:31N 39°25' W 009°56'0 9.7
2018-Jun-20 21:31N 39°25' W 009°56'510.0
2018-Jun-20 21:00N 39°20' W 009°56'5 9.9
2018-Jun-20 20:30N 39°15' W 009°57'510.3
2018-Jun-20 20:00N 39°10' W 009°57'510.2
2018-Jun-20 19:30N 39°05' W 009°56'510.1
2018-Jun-20 19:01N 38°60' W 009°56'510.2
2018-Jun-20 18:30N 38°55' W 009°56'510.2
2018-Jun-20 18:01N 38°50' W 009°56'510.0
2018-Jun-20 17:30N 38°45' W 009°57'5 9.8
2018-Jun-20 17:00N 38°40' W 009°56'5 9.5
2018-Jun-20 16:30N 38°35' W 009°54'5 9.3
2018-Jun-20 16:00N 38°31' W 009°53'5 9.2
2018-Jun-20 15:30N 38°26' W 009°52'5 9.4
2018-Jun-20 15:00N 38°22' W 009°50'5 9.9
2018-Jun-20 14:30N 38°17' W 009°49'5 9.7
2018-Jun-20 14:00N 38°12' W 009°47'5 9.9
2018-Jun-20 13:30N 38°07' W 009°46'510.0
2018-Jun-20 13:00N 38°02' W 009°44'510.1
2018-Jun-20 12:30N 37°57' W 009°43'810.4
2018-Jun-20 11:46N 37°50' W 009°41'310.5
2018-Jun-20 11:30N 37°47' W 009°40'710.5
2018-Jun-20 10:49N 37°40' W 009°38'310.6
2018-Jun-20 10:30N 37°37' W 009°37'413 8.7
2018-Jun-18 11:09N 37°19' W 000°57'311.1
2018-Jun-18 10:53N 37°21' W 000°54'411.0
2018-Jun-18 10:29N 37°23' W 000°50'611.0
2018-Jun-18 09:54N 37°27' W 000°44'711.2
2018-Jun-18 09:15N 37°32' W 000°37'311.3
2018-Jun-18 09:00N 37°34' W 000°34'611.2
2018-Jun-18 08:29N 37°39' W 000°31'511.2
2018-Jun-18 08:00N 37°44' W 000°27'611.3
2018-Jun-18 07:30N 37°48' W 000°23'611.3
2018-Jun-18 07:00N 37°53' W 000°19'511.0
2018-Jun-18 06:30N 37°57' W 000°15'611.1
2018-Jun-18 05:59N 38°02' W 000°11'711.0
2018-Jun-18 05:21N 38°09' W 000°07'411.0
2018-Jun-18 05:00N 38°12' W 000°06'611.2
2018-Jun-18 04:30N 38°17' W 000°02'710.6
2018-Jun-18 03:49N 38°21' E 000°05'411.2
2018-Jun-18 03:30N 38°24' E 000°08'611.3
2018-Jun-18 03:00N 38°29' E 000°12'611.2
2018-Jun-18 02:30N 38°34' E 000°15'611.6
2018-Jun-18 02:00N 38°39' E 000°19'911.3
2018-Jun-18 01:12N 38°46' E 000°26'411.0
2018-Jun-18 00:52N 38°49' E 000°29'510.8
2018-Jun-18 00:26N 38°53' E 000°33'1310.9
2018-Jun-17 23:15N 39°03' E 000°43'310.8
2018-Jun-17 22:58N 39°05' E 000°45'5811.0
2018-Jun-17 17:45N 39°49' E 001°32'310.6
2018-Jun-17 17:30N 39°52' E 001°34'1410.7
2018-Jun-17 16:09N 40°03' E 001°46'23411.0
2018-Jun-16 18:52N 43°08' E 004°58'510.5
2018-Jun-16 18:25N 43°13' E 005°01'511.2
2018-Jun-16 18:00N 43°17' E 004°59'510.8
2018-Jun-16 17:30N 43°23' E 004°58'1 2.9
2018-Jun-16 17:00N 43°24' E 004°60'0 0.0
2018-Jun-16 16:30N 43°24' E 004°60'0 0.0
2018-Jun-16 16:00N 43°24' E 004°60'0 0.0
2018-Jun-16 15:27N 43°24' E 004°60'0 0.0
2018-Jun-16 15:00N 43°24' E 004°60'0 0.0
2018-Jun-16 14:30N 43°24' E 004°60'0 0.0
2018-Jun-16 14:00N 43°24' E 004°60'0 0.0
2018-Jun-16 13:27N 43°24' E 004°60'0 0.0
2018-Jun-16 12:57N 43°24' E 004°60'0 0.0
2018-Jun-16 12:30N 43°24' E 004°60'0 0.0
2018-Jun-16 12:00N 43°24' E 004°60'0 0.0
2018-Jun-16 11:30N 43°24' E 004°60'0 0.0
2018-Jun-16 11:00N 43°24' E 004°60'0 0.0
2018-Jun-16 10:27N 43°24' E 004°60'0 0.0
2018-Jun-16 09:57N 43°24' E 004°60'0 0.0
2018-Jun-16 09:30N 43°24' E 004°60'0 0.0
2018-Jun-16 09:00N 43°24' E 004°60'0 0.0
2018-Jun-16 08:30N 43°24' E 004°60'0 0.0
2018-Jun-16 08:00N 43°24' E 004°60'0 0.0
2018-Jun-16 07:30N 43°24' E 004°60'0 0.0
2018-Jun-16 07:00N 43°24' E 004°60'0 0.0
2018-Jun-16 06:27N 43°24' E 004°60'0 0.0
2018-Jun-16 05:57N 43°24' E 004°60'0 0.0
2018-Jun-16 05:30N 43°24' E 004°60'0 0.0
2018-Jun-16 05:00N 43°24' E 004°60'0 0.0
2018-Jun-16 04:27N 43°24' E 004°60'0 0.0
2018-Jun-16 03:57N 43°24' E 004°60'0 0.0
2018-Jun-16 03:30N 43°24' E 004°60'0 0.0
2018-Jun-16 03:00N 43°24' E 004°60'0 0.0
2018-Jun-16 02:30N 43°24' E 004°60'0 0.0
2018-Jun-16 02:00N 43°24' E 004°60'0 0.0
2018-Jun-16 01:30N 43°24' E 004°60'0 0.0
2018-Jun-16 01:00N 43°24' E 004°60'0 0.0
2018-Jun-16 00:27N 43°24' E 004°60'0 0.0
2018-Jun-16 00:00N 43°24' E 004°60'0 0.0
2018-Jun-15 23:30N 43°24' E 004°60'0 0.0
2018-Jun-15 23:00N 43°24' E 004°60'0 0.5
2018-Jun-15 22:30N 43°24' E 004°59'3 5.2
2018-Jun-15 22:00N 43°25' E 004°56'0 0.4
2018-Jun-15 21:26N 43°25' E 004°56'0 0.0
2018-Jun-15 20:56N 43°25' E 004°56'0 0.0
2018-Jun-15 20:23N 43°25' E 004°56'0 0.0
2018-Jun-15 19:59N 43°25' E 004°56'0 0.0
2018-Jun-15 19:29N 43°25' E 004°56'0 0.0
2018-Jun-15 18:59N 43°25' E 004°56'0 0.0
2018-Jun-15 18:26N 43°25' E 004°56'0 0.0
2018-Jun-15 17:47N 43°25' E 004°56'0 0.0
2018-Jun-15 17:29N 43°25' E 004°56'0 0.0
2018-Jun-15 16:56N 43°25' E 004°56'0 0.0
2018-Jun-15 16:20N 43°25' E 004°56'0 0.0
2018-Jun-15 15:59N 43°25' E 004°56'0 0.0
2018-Jun-15 15:26N 43°25' E 004°56'0 0.0
2018-Jun-15 14:56N 43°25' E 004°56'0 0.0
2018-Jun-15 14:23N 43°25' E 004°56'0 0.1
2018-Jun-15 13:59N 43°25' E 004°56'0 0.0
2018-Jun-15 13:29N 43°25' E 004°56'0 0.0
2018-Jun-15 12:56N 43°25' E 004°56'0 0.0
2018-Jun-15 12:29N 43°25' E 004°56'0 0.0
2018-Jun-15 11:59N 43°25' E 004°56'0 0.0
2018-Jun-15 11:26N 43°25' E 004°56'0 0.0
2018-Jun-15 10:59N 43°25' E 004°56'0 0.0
2018-Jun-15 10:29N 43°25' E 004°56'0 0.0
2018-Jun-15 09:50N 43°25' E 004°56'0 0.0
2018-Jun-15 09:23N 43°25' E 004°56'0 0.0
2018-Jun-15 08:59N 43°25' E 004°56'0 0.0
2018-Jun-15 08:29N 43°25' E 004°56'0 0.0
2018-Jun-15 07:59N 43°25' E 004°56'0 0.0
2018-Jun-15 07:29N 43°25' E 004°56'0 0.0
2018-Jun-15 06:59N 43°25' E 004°56'0 0.0
2018-Jun-15 06:23N 43°25' E 004°56'0 0.0
2018-Jun-15 05:59N 43°25' E 004°56'0 0.0
2018-Jun-15 05:29N 43°25' E 004°56'0 0.0
2018-Jun-15 04:56N 43°25' E 004°56'0 0.0
2018-Jun-15 04:26N 43°25' E 004°56'0 0.0
2018-Jun-15 03:59N 43°25' E 004°56'0 0.0
2018-Jun-15 03:29N 43°25' E 004°56'0 0.0
2018-Jun-15 02:59N 43°25' E 004°56'0 0.0
2018-Jun-15 02:23N 43°25' E 004°56'0 0.0
2018-Jun-15 01:59N 43°25' E 004°56'0 0.0
2018-Jun-15 01:29N 43°25' E 004°56'0 0.0
2018-Jun-15 00:59N 43°25' E 004°56'0 0.0
2018-Jun-15 00:29N 43°25' E 004°56'0 0.0
2018-Jun-14 23:59N 43°25' E 004°56'0 0.0
2018-Jun-14 23:29N 43°25' E 004°56'0 0.0
2018-Jun-14 22:59N 43°25' E 004°56'0 0.0
2018-Jun-14 22:29N 43°25' E 004°56'0 0.0
2018-Jun-14 21:59N 43°25' E 004°56'0 0.0
2018-Jun-14 21:26N 43°25' E 004°56'0 0.0
2018-Jun-14 20:50N 43°25' E 004°56'0 0.0
2018-Jun-14 20:29N 43°25' E 004°56'0 0.0
2018-Jun-14 19:53N 43°25' E 004°56'0 0.0
2018-Jun-14 19:29N 43°25' E 004°56'0 0.0
2018-Jun-14 18:56N 43°25' E 004°56'0 0.0
2018-Jun-14 18:29N 43°25' E 004°56'0 0.0
2018-Jun-14 17:59N 43°25' E 004°56'0 0.0
2018-Jun-14 17:29N 43°25' E 004°56'0 0.0
2018-Jun-14 16:56N 43°25' E 004°56'0 0.1
2018-Jun-14 16:26N 43°25' E 004°56'0 0.0
2018-Jun-14 15:59N 43°25' E 004°56'0 0.0
2018-Jun-14 15:29N 43°25' E 004°56'0 0.0
2018-Jun-14 14:59N 43°25' E 004°56'0 0.0
2018-Jun-14 14:26N 43°25' E 004°56'0 0.0
2018-Jun-14 13:56N 43°25' E 004°56'0 0.0
2018-Jun-14 13:26N 43°25' E 004°56'0 0.0
2018-Jun-14 12:59N 43°25' E 004°56'0 0.8
2018-Jun-14 12:30N 43°24' E 004°56'5 9.1
2018-Jun-14 12:01N 43°20' E 004°59'3 6.2
2018-Jun-14 11:30N 43°17' E 005°01'4 7.8
2018-Jun-14 10:57N 43°13' E 005°03'150 6.9
2018-Jun-13 13:12N 43°38' E 008°26'210.7
2018-Jun-13 13:00N 43°40' E 008°28'510.8
2018-Jun-13 12:31N 43°44' E 008°32'510.8
2018-Jun-13 12:00N 43°48' E 008°36'510.7
2018-Jun-13 11:30N 43°53' E 008°40'510.5
2018-Jun-13 11:00N 43°57' E 008°45'510.9
2018-Jun-13 10:30N 44°02' E 008°49'  

Dump ship's entire track history